Terminal Aerodrome Forecast
Issued by NWS Upton, NY

Current Version | Previous Version | Text Only | Print | Product List | Glossary On
Versions: 1 2 3 4 5 6 7 8 9 10 11 12 13 14 15 16 17 18 19 20 21 22 23 24 25 26 27 28 29 30 31
000
FTUS41 KOKX 132351 CCA
TAFISP
TAF COR
KISP 132351Z 1400/1424 27012G20KT P6SM FEW100
     FM140300 26012KT P6SM SCT070 BKN100
     FM140600 26011G19KT 2SM -SN BKN035 OVC100
     FM141000 VRB05KT 1SM -SN OVC013
     FM141100 VRB04KT 1SM -SN OVC010
      TEMPO 1412/1414 1/2SM SN BKN005
     FM141600 32009KT P6SM BKN012
     FM141700 31010KT P6SM BKN015
     FM141800 31011KT P6SM SCT021
     FM141900 31014G22KT P6SM SCT060=

USA.gov is the U.S. government's official web portal to all federal, state and local government web resources and services.